Time;durP1;ratioP1;P1;durP2;ratioP2;P2;SDS_P1;SDS_P2;PMS_P1;PMS_P2;Temp;Humidity;BMP_temperature;BMP_pressure;BME280_temperature;BME280_humidity;BME280_pressure;Samples;Min_cycle;Max_cycle;Signal;HPM_P1;HPM_P2
2023/06/04 00:00:26;;;;;;;0.80;0.40;;;14.10;93.50;;;;;;5003868;28;20038;-73
2023/06/04 00:02:52;;;;;;;0.57;0.20;;;14.10;93.30;;;;;;5007281;28;20087;-70
2023/06/04 00:05:25;;;;;;;1.95;0.40;;;14.10;93.70;;;;;;5004927;28;20042;-72
2023/06/04 00:07:51;;;;;;;0.88;0.32;;;14.00;93.40;;;;;;5001749;28;20030;-71
2023/06/04 00:10:17;;;;;;;3.03;0.47;;;14.00;93.50;;;;;;5001535;28;20061;-72
2023/06/04 00:12:42;;;;;;;0.80;0.30;;;14.00;93.60;;;;;;5004301;28;20081;-72
2023/06/04 00:15:08;;;;;;;2.38;0.35;;;14.00;93.70;;;;;;5001019;28;20053;-71
2023/06/04 00:17:34;;;;;;;2.38;0.40;;;13.90;93.70;;;;;;5003372;28;20038;-71
2023/06/04 00:19:59;;;;;;;1.02;0.32;;;13.90;93.70;;;;;;5002857;28;20057;-72
2023/06/04 00:22:25;;;;;;;0.95;0.57;;;13.90;93.90;;;;;;5003259;28;20092;-70
2023/06/04 00:24:51;;;;;;;4.80;0.40;;;13.90;93.80;;;;;;5005131;28;20812;-71
2023/06/04 00:27:16;;;;;;;1.85;0.55;;;13.90;93.80;;;;;;5004872;28;20117;-71
2023/06/04 00:29:42;;;;;;;5.18;0.55;;;13.90;93.80;;;;;;5003743;28;20034;-71
2023/06/04 00:32:08;;;;;;;2.38;0.52;;;13.80;93.80;;;;;;4999078;28;20042;-71
2023/06/04 00:34:33;;;;;;;1.50;0.38;;;13.80;93.80;;;;;;5002935;28;20050;-70
2023/06/04 00:37:01;;;;;;;2.28;0.70;;;13.80;93.90;;;;;;5005295;28;20059;-71
2023/06/04 00:39:26;;;;;;;1.60;0.63;;;13.80;94.00;;;;;;5005995;28;20046;-73
2023/06/04 00:41:52;;;;;;;2.70;0.80;;;13.70;93.90;;;;;;5001372;28;20034;-72
2023/06/04 00:44:18;;;;;;;1.77;0.93;;;13.70;93.90;;;;;;5003646;28;20034;-72
2023/06/04 00:46:45;;;;;;;3.72;0.65;;;13.70;94.10;;;;;;5006439;28;20037;-71
2023/06/04 00:49:12;;;;;;;1.45;0.50;;;13.60;94.20;;;;;;5001124;28;20045;-71
2023/06/04 00:51:40;;;;;;;3.10;0.45;;;13.60;94.30;;;;;;5001644;28;20045;-71
2023/06/04 00:54:08;;;;;;;4.03;0.50;;;13.60;94.30;;;;;;5003904;28;20087;-71
2023/06/04 00:56:38;;;;;;;3.70;0.50;;;13.50;94.30;;;;;;5004898;28;20029;-70
2023/06/04 00:59:06;;;;;;;1.42;0.50;;;13.50;94.50;;;;;;5003339;28;20046;-71
2023/06/04 01:01:40;;;;;;;3.67;0.50;;;13.50;94.40;;;;;;5004195;28;20026;-71
2023/06/04 01:04:12;;;;;;;0.95;0.22;;;13.50;94.50;;;;;;5002277;28;20042;-72
2023/06/04 01:06:45;;;;;;;8.98;0.50;;;13.40;94.50;;;;;;5004124;28;20061;-71
2023/06/04 01:09:11;;;;;;;2.70;0.60;;;13.40;94.50;;;;;;5003578;28;20057;-71
2023/06/04 01:11:38;;;;;;;0.60;0.22;;;13.40;94.50;;;;;;5005134;28;20084;-71
2023/06/04 01:14:08;;;;;;;0.90;0.30;;;13.30;94.70;;;;;;5001633;28;20529;-71
2023/06/04 01:17:03;;;;;;;2.22;0.20;;;13.30;94.60;;;;;;5001654;28;20473;-72
2023/06/04 01:20:13;;;;;;;1.98;0.57;;;13.30;94.80;;;;;;4978767;28;20700;-71
2023/06/04 01:23:07;;;;;;;2.53;0.60;;;13.20;94.90;;;;;;5002454;28;20049;-69
2023/06/04 01:25:43;;;;;;;1.60;0.52;;;13.20;95.00;;;;;;4989630;28;20288;-70
2023/06/04 01:28:15;;;;;;;2.75;0.68;;;13.10;95.10;;;;;;4997725;28;20388;-71
2023/06/04 01:30:45;;;;;;;1.17;0.43;;;13.10;95.40;;;;;;5000260;28;20027;-70
2023/06/04 01:33:12;;;;;;;1.85;0.70;;;13.00;95.40;;;;;;5000984;28;20040;-70
2023/06/04 01:35:38;;;;;;;0.73;0.40;;;13.00;95.50;;;;;;5003292;28;20461;-70
2023/06/04 01:38:03;;;;;;;1.17;0.47;;;13.00;95.50;;;;;;5003543;28;20042;-71
2023/06/04 01:40:29;;;;;;;2.83;0.40;;;12.90;95.60;;;;;;5003407;28;20525;-71
2023/06/04 01:42:55;;;;;;;1.95;0.60;;;12.90;95.60;;;;;;5004283;28;20041;-69
2023/06/04 01:45:22;;;;;;;0.85;0.40;;;12.90;95.70;;;;;;5002861;28;20753;-71
2023/06/04 01:47:47;;;;;;;2.58;0.60;;;12.90;95.70;;;;;;5003790;28;20038;-70
2023/06/04 01:50:13;;;;;;;0.60;0.40;;;12.80;95.80;;;;;;5004974;28;20033;-71
2023/06/04 01:52:40;;;;;;;0.80;0.30;;;12.80;95.90;;;;;;5000766;28;20038;-70
2023/06/04 01:55:11;;;;;;;2.45;0.55;;;12.80;95.90;;;;;;5004383;28;20061;-71
2023/06/04 01:57:44;;;;;;;3.00;0.55;;;12.70;96.00;;;;;;5001925;28;20656;-71
2023/06/04 02:00:11;;;;;;;1.35;0.40;;;12.70;96.00;;;;;;4999174;28;20115;-70
2023/06/04 02:02:38;;;;;;;2.15;0.60;;;12.70;95.90;;;;;;5002782;28;20038;-70
2023/06/04 02:05:10;;;;;;;2.42;0.60;;;12.70;96.00;;;;;;5003059;28;20042;-71
2023/06/04 02:07:38;;;;;;;3.42;0.47;;;12.70;95.90;;;;;;5003835;28;20037;-71
2023/06/04 02:10:05;;;;;;;2.63;0.40;;;12.60;96.00;;;;;;4998980;28;20149;-70
2023/06/04 02:12:31;;;;;;;0.60;0.22;;;12.60;96.00;;;;;;5023459;28;20034;-70
2023/06/04 02:14:56;;;;;;;1.60;0.45;;;12.60;95.90;;;;;;5003244;28;20030;-73
2023/06/04 02:17:22;;;;;;;1.13;0.43;;;12.60;96.00;;;;;;5002531;28;20043;-73
2023/06/04 02:19:50;;;;;;;2.13;0.50;;;12.60;96.00;;;;;;5006743;28;20034;-70
2023/06/04 02:22:20;;;;;;;1.27;0.63;;;12.50;96.00;;;;;;5007754;28;20069;-71
2023/06/04 02:24:54;;;;;;;1.58;0.32;;;12.50;96.10;;;;;;5003889;28;20077;-71
2023/06/04 02:27:20;;;;;;;1.55;0.70;;;12.50;96.10;;;;;;5008305;28;20034;-71
2023/06/04 02:29:49;;;;;;;0.95;0.30;;;12.40;96.10;;;;;;5007493;28;20034;-70
2023/06/04 02:32:15;;;;;;;1.45;0.50;;;12.50;96.00;;;;;;5007256;28;20053;-71
2023/06/04 02:34:40;;;;;;;3.00;0.45;;;12.40;95.90;;;;;;5004015;28;20041;-70
2023/06/04 02:37:06;;;;;;;4.05;0.60;;;12.40;96.10;;;;;;5009030;28;20560;-71
2023/06/04 02:39:35;;;;;;;1.70;0.63;;;12.40;95.90;;;;;;5007373;28;20053;-71
2023/06/04 02:42:00;;;;;;;0.65;0.20;;;12.40;96.00;;;;;;5006770;28;20022;-71
2023/06/04 02:44:26;;;;;;;3.30;0.32;;;12.40;96.00;;;;;;5005965;28;20546;-70
2023/06/04 02:46:52;;;;;;;3.40;0.50;;;12.40;95.90;;;;;;5007599;28;20034;-70
2023/06/04 02:49:17;;;;;;;2.35;0.63;;;12.40;96.00;;;;;;5004464;28;20029;-70
2023/06/04 02:51:44;;;;;;;1.27;0.55;;;12.40;96.00;;;;;;5005210;28;20041;-71
2023/06/04 02:54:09;;;;;;;1.35;0.50;;;12.30;96.10;;;;;;5003811;28;20088;-72
2023/06/04 02:56:37;;;;;;;0.75;0.40;;;12.30;96.10;;;;;;5006689;28;20034;-71
2023/06/04 02:59:03;;;;;;;1.63;0.40;;;12.30;96.00;;;;;;5004904;28;20072;-71
2023/06/04 03:01:28;;;;;;;5.05;0.30;;;12.20;96.10;;;;;;5004787;28;20837;-71
2023/06/04 03:03:55;;;;;;;3.05;0.47;;;12.20;96.20;;;;;;5008146;28;20034;-71
2023/06/04 03:06:22;;;;;;;3.75;0.50;;;12.20;96.10;;;;;;5003141;28;20030;-72
2023/06/04 03:08:49;;;;;;;2.95;1.13;;;12.20;96.10;;;;;;4999625;28;20107;-70
2023/06/04 03:11:15;;;;;;;1.52;0.40;;;12.10;96.10;;;;;;5007988;28;20033;-73
2023/06/04 03:13:41;;;;;;;1.60;0.50;;;12.20;96.00;;;;;;5007704;28;20034;-72
2023/06/04 03:16:10;;;;;;;1.35;0.30;;;12.10;96.00;;;;;;5005298;28;20061;-71
2023/06/04 03:18:40;;;;;;;2.08;0.30;;;12.10;96.10;;;;;;5005110;28;20524;-70
2023/06/04 03:21:06;;;;;;;2.55;0.60;;;12.00;96.10;;;;;;5005571;28;20034;-70
2023/06/04 03:23:32;;;;;;;1.63;0.40;;;12.00;96.10;;;;;;5006533;28;20498;-70
2023/06/04 03:25:58;;;;;;;1.17;0.45;;;12.00;96.10;;;;;;5000900;28;20034;-71
2023/06/04 03:28:23;;;;;;;0.75;0.32;;;12.00;96.10;;;;;;5005525;28;20410;-70
2023/06/04 03:30:49;;;;;;;1.98;0.63;;;12.00;96.00;;;;;;5008022;28;20081;-71
2023/06/04 03:33:15;;;;;;;0.68;0.30;;;12.00;96.00;;;;;;5005535;28;20092;-70
2023/06/04 03:35:41;;;;;;;3.15;0.82;;;12.00;95.90;;;;;;5007253;28;20072;-70
2023/06/04 03:38:10;;;;;;;3.70;0.50;;;12.00;96.10;;;;;;5004345;28;20566;-71
2023/06/04 03:40:35;;;;;;;1.42;0.47;;;12.00;95.80;;;;;;5004704;28;20049;-70
2023/06/04 03:43:03;;;;;;;2.40;0.43;;;12.00;95.90;;;;;;5003567;28;20033;-70
2023/06/04 03:45:29;;;;;;;2.63;0.52;;;11.90;96.00;;;;;;5005972;28;20040;-71
2023/06/04 03:47:55;;;;;;;2.85;0.50;;;12.00;95.80;;;;;;5007259;28;20427;-70
2023/06/04 03:50:23;;;;;;;2.05;0.45;;;12.00;96.00;;;;;;5003511;28;20035;-71
2023/06/04 03:52:51;;;;;;;2.10;0.40;;;12.00;95.80;;;;;;5009831;28;20096;-70
2023/06/04 03:55:17;;;;;;;2.25;0.82;;;12.00;95.60;;;;;;5005471;28;20072;-70
2023/06/04 03:57:42;;;;;;;2.05;0.52;;;12.00;95.70;;;;;;5003501;28;20077;-70
2023/06/04 04:00:13;;;;;;;1.58;0.55;;;12.00;95.70;;;;;;5003692;28;20390;-71
2023/06/04 04:02:44;;;;;;;1.98;0.43;;;12.00;95.70;;;;;;5005914;28;20126;-70
2023/06/04 04:05:11;;;;;;;0.73;0.40;;;12.10;95.50;;;;;;5005335;28;20034;-71
2023/06/04 04:07:36;;;;;;;3.08;0.40;;;12.00;95.70;;;;;;5009324;28;20049;-71
2023/06/04 04:10:02;;;;;;;1.83;0.57;;;12.00;95.80;;;;;;5004313;28;20038;-71
2023/06/04 04:12:27;;;;;;;1.20;0.60;;;12.00;95.70;;;;;;5006966;28;20634;-70
2023/06/04 04:14:56;;;;;;;1.05;0.52;;;12.10;95.70;;;;;;5007132;28;20034;-70
2023/06/04 04:17:22;;;;;;;2.28;1.02;;;12.00;95.70;;;;;;5004528;28;20108;-72
2023/06/04 04:19:47;;;;;;;3.33;0.57;;;12.10;95.80;;;;;;5004227;28;20042;-71
2023/06/04 04:22:17;;;;;;;1.02;0.40;;;12.10;95.90;;;;;;5001841;28;20049;-70
2023/06/04 04:24:42;;;;;;;3.58;0.70;;;12.10;96.10;;;;;;5002247;28;20034;-70
2023/06/04 04:27:10;;;;;;;1.92;0.50;;;12.10;96.20;;;;;;5001941;28;20030;-69
2023/06/04 04:29:39;;;;;;;2.40;0.75;;;12.10;96.20;;;;;;5001382;28;20065;-70
2023/06/04 04:32:11;;;;;;;2.88;0.50;;;12.10;96.40;;;;;;5005071;28;20038;-71
2023/06/04 04:34:38;;;;;;;3.53;0.75;;;12.20;96.40;;;;;;5002634;28;20052;-70
2023/06/04 04:37:05;;;;;;;4.82;0.40;;;12.20;96.50;;;;;;5002689;28;20120;-70
2023/06/04 04:39:30;;;;;;;2.20;1.02;;;12.20;96.60;;;;;;5002422;28;20049;-71
2023/06/04 04:41:56;;;;;;;5.97;0.63;;;12.20;96.60;;;;;;5003309;28;20059;-70
2023/06/04 04:44:21;;;;;;;1.88;0.52;;;12.20;96.80;;;;;;5002732;28;20101;-70
2023/06/04 04:46:50;;;;;;;12.77;1.42;;;12.20;97.00;;;;;;5001797;28;20125;-71
2023/06/04 04:49:15;;;;;;;3.35;0.55;;;12.20;97.00;;;;;;5001209;28;20026;-70
2023/06/04 04:51:41;;;;;;;2.72;0.60;;;12.20;97.10;;;;;;5003485;28;20030;-72
2023/06/04 04:54:07;;;;;;;2.15;0.55;;;12.20;97.20;;;;;;5005794;28;20042;-71
2023/06/04 04:56:35;;;;;;;3.35;0.80;;;12.30;97.30;;;;;;5004698;28;20413;-71
2023/06/04 04:59:01;;;;;;;4.38;0.77;;;12.30;97.30;;;;;;5003207;28;20030;-71
2023/06/04 05:01:27;;;;;;;3.33;0.50;;;12.30;97.50;;;;;;5001303;28;20118;-72
2023/06/04 05:03:52;;;;;;;0.98;0.52;;;12.40;97.60;;;;;;5002562;28;20112;-71
2023/06/04 05:06:19;;;;;;;3.92;0.57;;;12.40;97.60;;;;;;5003189;28;20088;-70
2023/06/04 05:08:45;;;;;;;1.90;0.52;;;12.50;97.70;;;;;;5004313;28;20100;-72
2023/06/04 05:11:10;;;;;;;4.53;0.95;;;12.50;97.80;;;;;;5002301;28;20030;-70
2023/06/04 05:13:36;;;;;;;4.80;0.60;;;12.50;97.90;;;;;;4999858;28;20109;-71
2023/06/04 05:16:11;;;;;;;0.90;0.55;;;12.60;97.90;;;;;;5003727;28;20026;-71
2023/06/04 05:18:44;;;;;;;2.72;0.40;;;12.60;97.80;;;;;;5001189;28;20056;-70
2023/06/04 05:21:11;;;;;;;3.50;1.00;;;12.70;98.00;;;;;;5001853;28;20061;-71
2023/06/04 05:23:47;;;;;;;6.57;0.77;;;12.80;97.90;;;;;;5004447;28;20034;-70
2023/06/04 05:26:13;;;;;;;3.53;0.80;;;12.80;98.10;;;;;;5001630;28;20359;-71
2023/06/04 05:28:43;;;;;;;3.63;0.65;;;12.80;98.20;;;;;;5002238;28;20049;-71
2023/06/04 05:31:09;;;;;;;1.55;0.52;;;12.90;98.20;;;;;;5002422;28;20038;-71
2023/06/04 05:33:35;;;;;;;4.63;0.80;;;13.00;98.10;;;;;;5001995;28;20611;-71
2023/06/04 05:36:00;;;;;;;3.83;0.90;;;13.10;98.10;;;;;;5003337;28;20033;-73
2023/06/04 05:38:26;;;;;;;6.45;0.80;;;13.40;97.90;;;;;;5001557;28;20090;-71
2023/06/04 05:40:55;;;;;;;2.80;0.50;;;13.60;98.00;;;;;;5003455;28;20119;-70
2023/06/04 05:43:21;;;;;;;1.63;0.80;;;13.90;97.40;;;;;;5002891;28;20033;-70
2023/06/04 05:45:51;;;;;;;7.72;1.25;;;14.30;96.90;;;;;;5002153;28;20084;-71
2023/06/04 05:48:16;;;;;;;3.67;0.77;;;14.70;96.50;;;;;;5001398;28;20052;-71
2023/06/04 05:50:42;;;;;;;1.15;0.43;;;15.20;95.70;;;;;;5003619;28;20538;-70
2023/06/04 05:53:08;;;;;;;2.50;0.50;;;15.70;94.80;;;;;;5003778;28;20034;-72
2023/06/04 05:55:33;;;;;;;1.55;0.82;;;16.10;94.30;;;;;;5003496;28;20113;-70
2023/06/04 05:57:59;;;;;;;9.02;0.40;;;16.60;93.80;;;;;;5008318;28;20041;-72
2023/06/04 06:00:25;;;;;;;3.42;0.65;;;16.90;93.00;;;;;;5006880;28;20038;-72
2023/06/04 06:02:52;;;;;;;5.65;0.90;;;17.10;93.20;;;;;;5009197;28;20042;-70
2023/06/04 06:05:18;;;;;;;4.88;1.17;;;17.20;92.70;;;;;;5007134;28;20575;-70
2023/06/04 06:07:47;;;;;;;2.70;0.88;;;17.40;93.00;;;;;;5005822;28;20068;-70
2023/06/04 06:10:13;;;;;;;2.30;0.70;;;17.70;92.30;;;;;;5007851;28;20034;-69
2023/06/04 06:12:39;;;;;;;1.95;0.80;;;17.80;92.00;;;;;;5008685;28;20121;-71
2023/06/04 06:15:05;;;;;;;2.42;0.88;;;18.00;92.00;;;;;;5008514;28;20438;-71
2023/06/04 06:17:31;;;;;;;4.72;0.80;;;18.10;91.40;;;;;;5006149;28;20038;-70
2023/06/04 06:19:56;;;;;;;1.15;0.50;;;18.10;91.10;;;;;;5007324;28;20054;-70
2023/06/04 06:22:22;;;;;;;2.20;0.40;;;18.20;91.70;;;;;;5006270;28;20041;-71
2023/06/04 06:24:48;;;;;;;3.38;0.98;;;18.40;91.30;;;;;;5008920;28;20489;-70
2023/06/04 06:27:15;;;;;;;3.28;0.50;;;18.60;90.90;;;;;;5005537;28;20092;-71
2023/06/04 06:29:43;;;;;;;6.80;1.00;;;18.80;90.10;;;;;;5009356;28;20477;-70
2023/06/04 06:32:13;;;;;;;1.92;0.85;;;19.10;90.80;;;;;;5007802;28;20117;-72
2023/06/04 06:34:38;;;;;;;1.75;0.68;;;19.40;90.40;;;;;;5006085;28;20162;-71
2023/06/04 06:37:04;;;;;;;6.78;0.82;;;19.90;89.60;;;;;;5006803;28;20129;-71
2023/06/04 06:39:30;;;;;;;1.75;0.65;;;20.60;86.50;;;;;;5007043;28;20049;-70
2023/06/04 06:41:55;;;;;;;1.88;0.73;;;21.10;87.10;;;;;;5008758;28;20050;-71
2023/06/04 06:44:22;;;;;;;3.30;0.80;;;21.90;84.60;;;;;;5004626;28;20045;-70
2023/06/04 06:46:48;;;;;;;2.58;1.00;;;22.20;82.40;;;;;;5005405;28;20127;-71
2023/06/04 06:49:14;;;;;;;2.72;0.70;;;23.10;83.50;;;;;;5004029;28;20038;-70
2023/06/04 06:51:40;;;;;;;3.53;1.13;;;23.70;78.70;;;;;;5006480;28;20057;-70
2023/06/04 06:54:08;;;;;;;5.07;1.00;;;24.60;78.80;;;;;;5002537;28;20031;-71
2023/06/04 06:56:33;;;;;;;9.77;1.58;;;24.90;76.50;;;;;;5003621;28;20096;-71
2023/06/04 06:58:59;;;;;;;3.92;1.00;;;25.60;74.30;;;;;;5006442;28;20108;-71
2023/06/04 07:01:25;;;;;;;3.53;0.90;;;26.00;73.80;;;;;;5006322;28;20034;-70
2023/06/04 07:03:50;;;;;;;5.13;0.90;;;26.60;72.90;;;;;;5004355;28;20041;-72
2023/06/04 07:06:16;;;;;;;3.03;0.80;;;26.30;73.60;;;;;;5006105;28;20741;-72
2023/06/04 07:08:42;;;;;;;3.88;1.10;;;26.90;72.00;;;;;;5005435;28;20057;-71
2023/06/04 07:11:11;;;;;;;3.55;1.05;;;26.70;70.50;;;;;;5005415;28;20044;-71
2023/06/04 07:13:37;;;;;;;;;;;27.30;69.70;;;;;;5006876;28;20033;-69
2023/06/04 07:16:03;;;;;;;3.58;1.00;;;27.50;69.80;;;;;;5006897;28;19913;-70
2023/06/04 07:18:29;;;;;;;4.32;1.00;;;28.00;69.70;;;;;;5003537;28;20516;-71
2023/06/04 07:20:55;;;;;;;2.92;1.17;;;28.00;67.30;;;;;;5004891;28;20816;-70
2023/06/04 07:23:20;;;;;;;6.07;1.25;;;28.50;66.90;;;;;;5003839;28;20150;-70
2023/06/04 07:25:46;;;;;;;3.30;1.10;;;28.50;68.70;;;;;;5004122;28;20771;-71
2023/06/04 07:28:12;;;;;;;2.58;0.80;;;28.80;65.50;;;;;;5005274;28;20148;-70
2023/06/04 07:30:38;;;;;;;2.50;1.15;;;29.20;66.40;;;;;;5005277;28;20034;-70
2023/06/04 07:33:04;;;;;;;4.07;1.23;;;28.90;64.20;;;;;;5005081;28;20041;-70
2023/06/04 07:35:29;;;;;;;2.78;1.13;;;29.40;65.00;;;;;;5005622;28;20487;-70
2023/06/04 07:37:58;;;;;;;4.22;1.02;;;29.40;64.20;;;;;;5004588;28;20045;-70
2023/06/04 07:40:23;;;;;;;5.95;1.05;;;29.30;63.40;;;;;;5004164;28;20041;-70
2023/06/04 07:42:49;;;;;;;5.30;1.30;;;29.30;62.70;;;;;;5005387;28;20045;-71
2023/06/04 07:45:15;;;;;;;5.03;1.75;;;28.90;63.10;;;;;;5005651;28;20029;-70
2023/06/04 07:47:41;;;;;;;1.58;0.77;;;29.00;62.80;;;;;;5005103;28;20042;-70
2023/06/04 07:50:07;;;;;;;1.13;0.60;;;28.80;62.60;;;;;;5001807;28;20052;-71
2023/06/04 07:52:33;;;;;;;2.50;1.00;;;28.90;62.40;;;;;;5001980;28;20046;-70
2023/06/04 07:54:59;;;;;;;2.30;1.00;;;28.90;62.90;;;;;;5006421;28;20038;-72
2023/06/04 07:57:25;;;;;;;3.65;0.75;;;29.40;62.60;;;;;;5002759;28;20045;-71
2023/06/04 07:59:51;;;;;;;1.85;0.60;;;29.40;62.00;;;;;;5002336;28;20044;-71
2023/06/04 08:02:17;;;;;;;3.08;1.10;;;29.10;60.50;;;;;;5004943;28;20053;-71
2023/06/04 08:04:42;;;;;;;3.25;1.38;;;28.50;61.20;;;;;;5005117;28;20057;-70
2023/06/04 08:07:08;;;;;;;2.05;1.00;;;28.10;61.20;;;;;;5004863;28;20034;-70
2023/06/04 08:09:34;;;;;;;3.00;0.80;;;27.70;62.70;;;;;;5002903;28;20038;-70
2023/06/04 08:12:00;;;;;;;2.80;0.85;;;27.70;61.70;;;;;;5005038;28;20037;-70
2023/06/04 08:14:27;;;;;;;3.67;0.52;;;26.90;62.80;;;;;;5002349;28;20042;-71
2023/06/04 08:16:55;;;;;;;6.35;0.98;;;26.30;63.80;;;;;;5000391;28;20146;-70
2023/06/04 08:19:21;;;;;;;1.92;0.57;;;25.80;64.00;;;;;;5027357;28;20038;-70
2023/06/04 08:21:53;;;;;;;1.48;0.60;;;25.20;64.50;;;;;;4993834;28;20038;-72
2023/06/04 08:24:24;;;;;;;1.83;0.60;;;24.70;66.80;;;;;;4994798;28;20044;-71
2023/06/04 08:26:56;;;;;;;2.50;0.65;;;24.30;67.20;;;;;;4998150;28;20394;-71
2023/06/04 08:29:21;;;;;;;2.30;0.85;;;24.20;67.50;;;;;;4996728;28;20117;-71
2023/06/04 08:31:47;;;;;;;4.65;0.85;;;23.80;66.90;;;;;;4996412;28;20121;-71
2023/06/04 08:34:12;;;;;;;4.90;0.50;;;23.60;68.00;;;;;;4998203;28;20493;-71
2023/06/04 08:36:38;;;;;;;1.42;0.32;;;23.50;69.30;;;;;;4987600;28;20049;-71
2023/06/04 08:39:04;;;;;;;3.42;0.65;;;23.10;68.60;;;;;;5017260;28;20034;-72
2023/06/04 08:41:49;;;;;;;0.73;0.47;;;23.00;69.00;;;;;;4995344;28;20030;-71
2023/06/04 08:44:16;;;;;;;4.60;0.85;;;22.80;70.20;;;;;;4995281;28;20503;-71
2023/06/04 08:46:43;;;;;;;1.77;0.50;;;22.80;70.10;;;;;;4999541;28;20039;-71
2023/06/04 08:49:12;;;;;;;4.05;0.40;;;22.70;71.60;;;;;;4997097;28;20368;-71
2023/06/04 08:51:38;;;;;;;1.33;0.50;;;22.70;72.60;;;;;;5003317;28;20048;-71
2023/06/04 08:54:08;;;;;;;1.45;0.30;;;22.80;71.50;;;;;;4998806;28;20149;-73
2023/06/04 08:56:36;;;;;;;5.75;0.40;;;22.70;70.80;;;;;;4994387;28;20091;-71
2023/06/04 08:59:04;;;;;;;0.80;0.30;;;22.70;71.40;;;;;;4993416;28;20050;-72
2023/06/04 09:01:32;;;;;;;0.77;0.40;;;22.70;71.30;;;;;;4998213;28;20553;-72
2023/06/04 09:04:01;;;;;;;2.50;0.60;;;22.70;70.20;;;;;;4991040;28;20031;-72
2023/06/04 09:06:26;;;;;;;3.78;0.30;;;22.70;71.90;;;;;;4996053;28;20045;-72
2023/06/04 09:09:01;;;;;;;1.13;0.40;;;22.80;70.60;;;;;;5000687;28;20119;-71
2023/06/04 09:11:31;;;;;;;2.75;0.28;;;22.80;70.40;;;;;;5001003;28;20041;-71
2023/06/04 09:13:59;;;;;;;;;;;23.00;71.30;;;;;;4994308;28;20043;-72
2023/06/04 09:16:24;;;;;;;2.47;0.32;;;22.80;70.30;;;;;;4995692;28;20012;-73
2023/06/04 09:18:54;;;;;;;3.05;0.52;;;22.90;70.40;;;;;;4999276;28;20121;-72
2023/06/04 09:21:22;;;;;;;2.67;0.98;;;22.90;69.30;;;;;;4993671;28;20100;-71
2023/06/04 09:23:51;;;;;;;0.70;0.30;;;23.00;69.80;;;;;;5001009;28;20041;-71
2023/06/04 09:26:16;;;;;;;4.03;0.40;;;23.00;70.10;;;;;;4996420;28;20033;-72
2023/06/04 09:28:45;;;;;;;3.45;0.57;;;23.00;69.20;;;;;;4997174;28;20038;-72
2023/06/04 09:31:15;;;;;;;1.60;0.53;;;23.00;67.30;;;;;;4998413;28;20033;-72
2023/06/04 09:33:48;;;;;;;3.40;0.57;;;22.70;67.80;;;;;;5004183;28;20153;-72
2023/06/04 09:36:13;;;;;;;1.33;0.30;;;22.70;68.70;;;;;;5000780;28;20285;-72
2023/06/04 09:38:40;;;;;;;3.05;0.30;;;22.70;69.50;;;;;;5006835;28;20552;-72
2023/06/04 09:41:21;;;;;;;1.08;0.20;;;22.90;69.10;;;;;;4991066;28;20046;-72
2023/06/04 09:43:47;;;;;;;2.40;0.30;;;23.10;69.50;;;;;;4992260;28;20029;-72
2023/06/04 09:46:17;;;;;;;1.25;0.35;;;23.30;67.10;;;;;;4993015;28;20056;-72
2023/06/04 09:48:44;;;;;;;4.10;0.70;;;23.40;68.20;;;;;;4997110;28;20165;-71
2023/06/04 09:51:15;;;;;;;2.17;0.20;;;23.50;67.30;;;;;;4995725;28;20126;-72
2023/06/04 09:53:41;;;;;;;1.17;0.20;;;23.40;67.70;;;;;;4994043;28;20113;-71
2023/06/04 09:56:14;;;;;;;1.45;0.30;;;23.10;65.80;;;;;;4993028;28;20583;-71
2023/06/04 09:58:44;;;;;;;1.13;0.77;;;23.00;66.50;;;;;;4996243;28;20109;-72
2023/06/04 10:01:16;;;;;;;;;;;23.00;66.50;;;;;;4998089;28;20089;-71
2023/06/04 10:03:49;;;;;;;3.92;0.65;;;23.20;68.00;;;;;;4997005;28;19909;-71
2023/06/04 10:06:18;;;;;;;1.42;0.30;;;23.30;64.90;;;;;;4997563;28;20128;-71
2023/06/04 10:08:45;;;;;;;0.55;0.20;;;23.20;65.10;;;;;;5000427;28;20030;-72
2023/06/04 10:11:44;;;;;;;9.60;0.30;;;23.30;66.60;;;;;;4996534;28;20117;-72
2023/06/04 10:14:25;;;;;;;1.63;0.20;;;23.20;65.20;;;;;;4980791;28;20418;-72
2023/06/04 10:16:56;;;;;;;4.25;0.43;;;23.40;64.60;;;;;;4998589;28;20159;-72
2023/06/04 10:19:22;;;;;;;2.90;0.30;;;23.40;65.40;;;;;;4997274;28;20099;-72
2023/06/04 10:21:54;;;;;;;1.20;0.25;;;23.30;65.90;;;;;;4991322;28;20117;-72
2023/06/04 10:24:24;;;;;;;1.27;0.30;;;23.50;65.20;;;;;;4990666;28;20045;-72
2023/06/04 10:26:51;;;;;;;1.60;0.28;;;23.40;65.70;;;;;;5001561;28;20402;-72
2023/06/04 10:29:18;;;;;;;1.30;0.30;;;23.50;66.50;;;;;;4994296;28;20026;-72
2023/06/04 10:31:46;;;;;;;2.55;0.30;;;23.60;67.10;;;;;;4991476;28;20026;-72
2023/06/04 10:34:16;;;;;;;1.13;0.30;;;23.70;66.40;;;;;;5000413;28;20033;-72
2023/06/04 10:36:48;;;;;;;1.35;0.50;;;23.80;66.60;;;;;;4996633;28;20030;-72
2023/06/04 10:39:28;;;;;;;0.50;0.38;;;23.80;66.10;;;;;;5001127;28;20036;-72
2023/06/04 10:42:02;;;;;;;0.55;0.30;;;23.70;66.70;;;;;;5001711;28;20065;-72
2023/06/04 10:44:29;;;;;;;1.83;0.45;;;23.80;66.80;;;;;;4996731;28;20085;-72
2023/06/04 10:46:58;;;;;;;3.80;0.25;;;23.90;66.50;;;;;;4996547;28;20045;-71
2023/06/04 10:49:33;;;;;;;1.90;0.47;;;23.90;65.50;;;;;;4997937;28;20030;-70
2023/06/04 10:52:10;;;;;;;2.22;0.45;;;23.90;67.40;;;;;;4997588;28;20469;-69
2023/06/04 10:54:35;;;;;;;2.53;0.68;;;23.80;67.10;;;;;;4996175;28;20092;-70
2023/06/04 10:57:13;;;;;;;0.60;0.35;;;23.80;67.20;;;;;;4989632;28;20034;-71
2023/06/04 10:59:39;;;;;;;2.45;0.40;;;23.90;66.10;;;;;;5002223;28;20514;-70
2023/06/04 11:02:08;;;;;;;1.65;0.40;;;24.00;66.50;;;;;;5002165;28;20026;-71
2023/06/04 11:04:37;;;;;;;1.90;0.43;;;23.90;66.90;;;;;;4997385;28;20038;-71
2023/06/04 11:07:04;;;;;;;2.75;0.50;;;23.90;66.80;;;;;;4992846;28;20117;-71
2023/06/04 11:09:36;;;;;;;4.10;1.02;;;23.90;67.60;;;;;;4996476;28;20037;-71
2023/06/04 11:12:05;;;;;;;2.70;0.43;;;23.80;68.60;;;;;;5010652;28;20062;-71
2023/06/04 11:14:30;;;;;;;1.63;0.68;;;23.80;73.20;;;;;;5000346;28;20038;-71
2023/06/04 11:16:56;;;;;;;2.92;0.32;;;23.80;73.10;;;;;;4997071;28;20122;-71
2023/06/04 11:19:34;;;;;;;2.78;0.80;;;23.80;71.20;;;;;;4993235;28;20044;-71
2023/06/04 11:22:00;;;;;;;0.82;0.38;;;23.90;72.20;;;;;;4998273;28;20030;-72
2023/06/04 11:24:26;;;;;;;3.10;0.45;;;23.90;68.70;;;;;;4999172;28;20069;-71
2023/06/04 11:26:51;;;;;;;1.80;0.55;;;24.10;74.20;;;;;;4990567;28;20043;-71
2023/06/04 11:29:27;;;;;;;2.63;0.75;;;24.00;75.00;;;;;;4995953;28;20058;-70
2023/06/04 11:31:53;;;;;;;3.17;0.82;;;24.10;75.50;;;;;;4996879;28;20114;-71
2023/06/04 11:34:28;;;;;;;3.30;0.63;;;23.90;75.90;;;;;;5009312;28;20125;-71
2023/06/04 11:37:09;;;;;;;3.30;1.30;;;24.00;76.30;;;;;;4996450;28;20142;-71
2023/06/04 11:39:38;;;;;;;2.70;0.52;;;23.80;75.60;;;;;;4998233;28;20041;-71
2023/06/04 11:42:07;;;;;;;1.95;0.55;;;23.80;76.70;;;;;;5002866;28;20026;-71
2023/06/04 11:44:36;;;;;;;6.10;1.02;;;23.60;76.80;;;;;;4998423;28;20034;-72
2023/06/04 11:47:06;;;;;;;2.95;1.17;;;23.50;77.90;;;;;;4999282;28;20041;-73
2023/06/04 11:49:31;;;;;;;1.83;0.55;;;23.40;78.30;;;;;;4998008;28;20042;-72
2023/06/04 11:51:57;;;;;;;3.28;0.65;;;23.30;79.20;;;;;;4999818;28;20042;-71
2023/06/04 11:54:25;;;;;;;1.70;0.60;;;23.30;79.00;;;;;;4998046;28;20030;-71
2023/06/04 11:57:06;;;;;;;1.88;0.73;;;23.20;79.20;;;;;;4996615;28;20041;-71
2023/06/04 11:59:32;;;;;;;2.40;0.88;;;23.20;79.90;;;;;;5011380;28;20041;-71
2023/06/04 12:02:01;;;;;;;2.80;0.80;;;23.10;79.60;;;;;;4994062;28;20037;-72
2023/06/04 12:04:30;;;;;;;2.42;1.05;;;23.10;80.20;;;;;;4993457;28;20049;-70
2023/06/04 12:06:59;;;;;;;2.53;0.87;;;23.10;80.60;;;;;;4995626;28;20114;-72
2023/06/04 12:09:39;;;;;;;3.75;0.70;;;23.00;80.40;;;;;;4994499;28;20273;-72
2023/06/04 12:12:06;;;;;;;8.25;0.82;;;22.90;80.80;;;;;;4994418;28;20449;-72
2023/06/04 12:14:32;;;;;;;2.53;0.80;;;22.80;80.30;;;;;;4996522;28;20084;-71
2023/06/04 12:17:05;;;;;;;9.48;0.82;;;22.80;80.10;;;;;;4995301;28;20031;-70
2023/06/04 12:19:31;;;;;;;9.50;0.80;;;22.80;80.90;;;;;;4997431;28;20046;-72
2023/06/04 12:22:05;;;;;;;2.65;0.70;;;22.80;80.90;;;;;;4999109;28;20091;-71
2023/06/04 12:24:53;;;;;;;2.58;0.55;;;22.70;80.90;;;;;;4994693;28;20125;-71
2023/06/04 12:27:23;;;;;;;2.95;0.63;;;22.70;80.60;;;;;;5023169;28;20049;-72
2023/06/04 12:30:03;;;;;;;1.75;0.60;;;22.80;81.30;;;;;;5000644;28;20372;-72
2023/06/04 12:32:29;;;;;;;;;;;22.80;81.00;;;;;;4994834;28;20034;-72
2023/06/04 12:34:55;;;;;;;2.50;0.60;;;22.70;80.80;;;;;;5005931;28;19932;-73
2023/06/04 12:37:27;;;;;;;5.68;0.77;;;22.80;82.20;;;;;;4993454;28;20033;-72
2023/06/04 12:39:55;;;;;;;5.43;0.55;;;22.80;80.00;;;;;;4991640;28;20061;-72
2023/06/04 12:42:21;;;;;;;4.10;0.90;;;22.80;80.50;;;;;;4999237;28;20030;-71
2023/06/04 12:44:50;;;;;;;2.70;0.50;;;22.80;80.00;;;;;;4997483;28;20116;-72
2023/06/04 12:47:21;;;;;;;1.77;0.60;;;22.70;79.70;;;;;;4997398;28;20037;-71
2023/06/04 12:49:49;;;;;;;3.42;0.88;;;22.60;79.90;;;;;;5005024;28;20034;-71
2023/06/04 12:52:17;;;;;;;9.40;0.88;;;22.60;79.40;;;;;;5002944;28;20064;-72